Time;durP1;ratioP1;P1;durP2;ratioP2;P2;SDS_P1;SDS_P2;PMS_P1;PMS_P2;Temp;Humidity;BMP_temperature;BMP_pressure;BME280_temperature;BME280_humidity;BME280_pressure;Samples;Min_cycle;Max_cycle;Signal;HPM_P1;HPM_P2
2022/12/23 00:01:28;;;;;;;112.45;36.00;;;6.50;99.90;;;;;;6219342;22;20023;-92
2022/12/23 00:03:58;;;;;;;116.80;39.50;;;6.40;99.90;;;;;;6219369;22;20077;-93
2022/12/23 00:06:24;;;;;;;145.68;40.72;;;6.50;99.90;;;;;;6219034;22;20015;-93
2022/12/23 00:08:56;;;;;;;171.27;43.28;;;6.50;99.90;;;;;;6219155;22;20020;-91
2022/12/23 00:11:23;;;;;;;122.90;40.15;;;6.40;99.90;;;;;;6218978;22;20012;-92
2022/12/23 00:16:37;;;;;;;184.82;43.65;;;6.30;99.90;;;;;;6245112;22;20448;-92
2022/12/23 00:19:04;;;;;;;183.50;43.25;;;6.50;99.90;;;;;;6218955;22;20295;-93
2022/12/23 00:21:30;;;;;;;102.93;38.33;;;6.40;99.90;;;;;;6219247;22;20103;-93
2022/12/23 00:23:55;;;;;;;110.25;40.38;;;6.50;99.90;;;;;;6218891;22;20051;-93
2022/12/23 00:26:24;;;;;;;108.90;39.22;;;6.50;99.90;;;;;;6218152;22;20011;-93
2022/12/23 00:28:50;;;;;;;141.52;41.53;;;6.90;99.90;;;;;;6218894;22;20499;-93
2022/12/23 00:31:18;;;;;;;124.20;41.13;;;6.40;99.90;;;;;;6219487;22;20062;-93
2022/12/23 00:33:46;;;;;;;137.55;41.30;;;6.30;99.90;;;;;;6219210;22;20031;-94
2022/12/23 00:36:17;;;;;;;136.18;40.78;;;6.40;99.90;;;;;;6218348;22;20020;-93
2022/12/23 00:44:12;;;;;;;147.75;41.33;;;6.40;99.90;;;;;;6244337;22;20466;-94
2022/12/23 00:46:38;;;;;;;126.70;38.13;;;6.40;99.90;;;;;;6219652;22;20334;-94
2022/12/23 00:51:54;;;;;;;123.55;40.22;;;6.30;99.90;;;;;;6243503;22;20111;-92
2022/12/23 00:54:19;;;;;;;121.88;38.63;;;6.50;99.90;;;;;;6219772;22;20055;-92
2022/12/23 00:56:45;;;;;;;110.47;37.45;;;6.40;99.90;;;;;;6217175;22;20352;-93
2022/12/23 00:59:11;;;;;;;184.70;41.50;;;6.40;99.90;;;;;;6219305;22;20019;-93
2022/12/23 01:07:20;;;;;;;126.05;39.05;;;6.20;99.90;;;;;;5002649;28;20076;-93
2022/12/23 01:09:46;;;;;;;211.50;45.22;;;6.40;99.90;;;;;;5018356;28;20061;-92
2022/12/23 01:12:12;;;;;;;159.50;42.35;;;6.30;99.90;;;;;;5018207;28;20043;-93
2022/12/23 01:14:41;;;;;;;209.80;45.45;;;6.40;99.90;;;;;;5019199;28;20558;-93
2022/12/23 01:17:07;;;;;;;140.43;40.22;;;6.60;99.90;;;;;;5018502;28;20042;-93
2022/12/23 01:19:33;;;;;;;112.53;39.67;;;6.40;99.90;;;;;;4986624;28;20057;-93
2022/12/23 01:21:59;;;;;;;128.93;42.50;;;6.20;99.90;;;;;;5018575;28;20054;-93
2022/12/23 01:24:38;;;;;;;170.73;46.17;;;6.20;99.90;;;;;;5018305;28;20178;-92
2022/12/23 01:27:07;;;;;;;138.02;42.47;;;6.30;99.90;;;;;;4985176;28;20054;-92
2022/12/23 01:29:32;;;;;;;119.95;41.88;;;6.40;99.90;;;;;;5019135;28;20049;-92
2022/12/23 01:31:58;;;;;;;157.25;45.10;;;6.50;99.90;;;;;;5004978;28;20443;-93
2022/12/23 01:34:24;;;;;;;140.85;42.17;;;6.50;99.90;;;;;;4999011;28;20069;-93
2022/12/23 01:36:52;;;;;;;114.20;39.65;;;6.40;99.90;;;;;;4998924;28;20051;-91
2022/12/23 01:39:18;;;;;;;126.07;41.00;;;6.30;99.90;;;;;;4998185;28;20035;-92
2022/12/23 01:44:59;;;;;;;143.70;38.25;;;6.30;99.90;;;;;;4981999;28;20054;-90
2022/12/23 01:47:34;;;;;;;149.63;38.92;;;6.50;99.90;;;;;;4998849;28;20125;-92
2022/12/23 01:50:06;;;;;;;203.30;45.78;;;6.60;99.90;;;;;;4998060;28;20060;-91
2022/12/23 01:52:41;;;;;;;202.73;43.85;;;6.50;99.90;;;;;;4998032;28;20050;-91
2022/12/23 01:55:10;;;;;;;173.00;43.88;;;6.30;99.90;;;;;;4998201;28;20126;-91
2022/12/23 01:57:39;;;;;;;185.70;43.97;;;6.50;99.90;;;;;;4998090;28;20050;-91
2022/12/23 02:05:36;;;;;;;316.73;52.47;;;6.50;99.90;;;;;;4982029;28;20097;-92
2022/12/23 02:11:05;;;;;;;184.38;45.35;;;7.10;99.90;;;;;;4980964;28;20050;-90
2022/12/23 02:16:15;;;;;;;141.15;43.15;;;6.40;99.90;;;;;;4984787;28;20050;-92
2022/12/23 02:16:36;;;;;;;136.25;42.28;;;6.00;99.90;;;;;;4969578;28;20057;-93
2022/12/23 02:19:15;;;;;;;279.00;49.22;;;6.40;99.90;;;;;;4985380;28;20051;-93
2022/12/23 02:22:05;;;;;;;157.45;41.83;;;6.30;99.90;;;;;;4985252;28;20134;-93
2022/12/23 02:24:53;;;;;;;165.90;43.75;;;6.50;99.90;;;;;;4985605;28;20414;-92
2022/12/23 02:27:31;;;;;;;185.98;43.15;;;6.40;99.90;;;;;;4984156;28;20094;-92
2022/12/23 02:30:23;;;;;;;168.30;44.75;;;6.40;99.90;;;;;;4985091;28;20104;-91
2022/12/23 02:33:10;;;;;;;221.50;46.75;;;6.40;99.90;;;;;;4984339;28;20083;-92
2022/12/23 02:35:51;;;;;;;184.57;41.40;;;6.40;99.90;;;;;;4952623;28;20145;-92
2022/12/23 02:38:30;;;;;;;175.07;44.33;;;6.50;99.90;;;;;;4968638;28;20046;-93
2022/12/23 02:41:18;;;;;;;195.10;44.42;;;6.40;99.90;;;;;;4966644;28;20143;-93
2022/12/23 02:43:56;;;;;;;208.00;45.58;;;7.20;99.90;;;;;;4968294;28;20133;-92
2022/12/23 02:46:32;;;;;;;190.05;46.08;;;6.50;99.90;;;;;;4968659;28;20141;-93
2022/12/23 02:49:07;;;;;;;212.00;47.65;;;6.60;99.90;;;;;;4967538;28;20039;-92
2022/12/23 02:51:37;;;;;;;222.00;50.10;;;6.40;99.90;;;;;;4968773;28;20490;-92
2022/12/23 02:54:07;;;;;;;143.23;41.97;;;6.60;99.90;;;;;;4967465;28;20434;-92
2022/12/23 02:56:38;;;;;;;208.75;45.38;;;6.40;99.90;;;;;;4967537;28;20050;-93
2022/12/23 02:59:16;;;;;;;149.63;42.83;;;6.20;99.90;;;;;;4968221;28;20089;-92
2022/12/23 03:01:46;;;;;;;157.65;43.42;;;6.80;99.90;;;;;;4967060;28;20648;-91
2022/12/23 03:04:12;;;;;;;136.13;39.63;;;6.50;99.90;;;;;;4969185;28;20039;-93
2022/12/23 03:06:43;;;;;;;240.00;47.97;;;6.60;99.90;;;;;;4968112;28;20510;-92
2022/12/23 03:09:21;;;;;;;136.77;40.58;;;7.20;99.90;;;;;;4968143;28;20066;-93
2022/12/23 03:11:52;;;;;;;175.48;41.25;;;6.40;99.90;;;;;;4967532;28;20051;-93
2022/12/23 03:14:50;;;;;;;148.95;39.17;;;6.60;99.90;;;;;;4968138;28;20082;-92
2022/12/23 03:17:32;;;;;;;181.50;40.20;;;6.40;99.90;;;;;;4967975;28;20113;-91
2022/12/23 03:20:08;;;;;;;172.15;37.67;;;6.50;99.90;;;;;;4967673;28;20479;-92
2022/12/23 03:22:58;;;;;;;164.68;38.88;;;6.80;99.90;;;;;;4968163;28;20062;-92
2022/12/23 03:25:35;;;;;;;137.95;33.75;;;6.50;99.90;;;;;;4967849;28;20474;-92
2022/12/23 03:28:16;;;;;;;125.82;32.35;;;6.50;99.90;;;;;;4967342;28;20105;-93
2022/12/23 03:30:48;;;;;;;131.93;33.40;;;6.40;99.90;;;;;;4967476;28;20420;-93
2022/12/23 03:33:18;;;;;;;130.98;31.52;;;6.50;99.90;;;;;;4952036;28;20051;-92
2022/12/23 03:35:55;;;;;;;106.85;30.30;;;6.60;99.90;;;;;;4951935;28;20115;-93
2022/12/23 03:38:31;;;;;;;115.38;30.02;;;6.60;99.90;;;;;;4951825;28;20050;-93
2022/12/23 03:41:17;;;;;;;136.73;33.33;;;6.40;99.90;;;;;;4950749;28;20498;-93
2022/12/23 03:43:58;;;;;;;;;;;;;;;;;;;;;
2022/12/23 03:46:37;;;;;;;162.30;32.47;;;6.60;99.90;;;;;;4967814;28;20058;-93
2022/12/23 03:49:09;;;;;;;130.02;30.23;;;6.50;99.90;;;;;;4951292;28;20128;-93
2022/12/23 03:52:01;;;;;;;163.15;31.98;;;6.50;99.90;;;;;;4950845;28;20053;-93
2022/12/23 03:54:36;;;;;;;133.20;31.40;;;6.40;99.90;;;;;;4951742;28;20097;-93
2022/12/23 03:57:07;;;;;;;99.70;25.08;;;6.40;99.90;;;;;;4950364;28;20086;-93
2022/12/23 03:59:53;;;;;;;119.15;30.10;;;6.40;99.90;;;;;;4951097;28;20051;-92
2022/12/23 04:02:51;;;;;;;132.05;28.63;;;6.80;99.90;;;;;;4951334;28;20090;-93
2022/12/23 04:05:37;;;;;;;117.25;28.25;;;6.40;99.90;;;;;;4951185;28;20130;-93
2022/12/23 04:08:18;;;;;;;121.88;29.52;;;6.40;99.90;;;;;;4951290;28;20219;-92
2022/12/23 04:10:49;;;;;;;133.98;29.67;;;6.50;99.90;;;;;;4950917;28;20050;-92
2022/12/23 04:13:20;;;;;;;151.10;31.15;;;6.40;99.90;;;;;;4950678;28;20061;-92
2022/12/23 04:15:46;;;;;;;122.35;29.83;;;6.30;99.90;;;;;;4950755;28;20042;-92
2022/12/23 04:18:12;;;;;;;164.32;32.08;;;6.50;99.90;;;;;;4951140;28;20058;-92
2022/12/23 04:20:45;;;;;;;127.35;28.27;;;6.50;99.90;;;;;;4950524;28;20129;-92
2022/12/23 04:23:27;;;;;;;;;;;;;;;;;;;;;
2022/12/23 04:26:00;;;;;;;119.65;27.98;;;6.90;99.90;;;;;;4966367;28;20039;-93
2022/12/23 04:28:28;;;;;;;;;;;6.30;99.90;;;;;;4951715;28;20043;-92
2022/12/23 04:30:58;;;;;;;128.98;28.17;;;6.50;99.90;;;;;;4953840;28;19922;-92
2022/12/23 04:33:26;;;;;;;117.43;27.02;;;6.40;99.90;;;;;;4969463;28;20382;-92
2022/12/23 04:35:59;;;;;;;150.27;30.05;;;6.30;99.90;;;;;;5002180;28;20039;-93
2022/12/23 04:38:25;;;;;;;111.53;27.60;;;6.70;99.90;;;;;;5002483;28;20133;-93
2022/12/23 04:40:51;;;;;;;150.43;30.33;;;6.40;99.90;;;;;;5000898;28;20166;-92
2022/12/23 04:43:22;;;;;;;120.85;29.55;;;6.30;99.90;;;;;;5002791;28;20493;-93
2022/12/23 04:45:50;;;;;;;140.02;29.35;;;6.30;99.90;;;;;;4970001;28;20042;-93
2022/12/23 04:48:16;;;;;;;150.25;32.17;;;6.30;99.90;;;;;;4969792;28;20049;-92
2022/12/23 04:50:47;;;;;;;150.55;29.58;;;6.40;99.90;;;;;;4970439;28;20092;-93
2022/12/23 04:53:17;;;;;;;92.28;24.95;;;7.10;99.90;;;;;;4970057;28;20050;-92
2022/12/23 04:55:50;;;;;;;97.55;25.35;;;6.20;99.90;;;;;;5001658;28;20098;-92
2022/12/23 04:58:23;;;;;;;;;;;6.30;99.90;;;;;;4970019;28;20046;-93
2022/12/23 05:01:04;;;;;;;163.38;29.83;;;6.30;99.90;;;;;;4969210;28;19995;-93
2022/12/23 05:03:30;;;;;;;124.20;27.30;;;6.10;99.90;;;;;;4970011;28;20506;-93
2022/12/23 05:05:58;;;;;;;88.35;24.52;;;6.30;99.90;;;;;;4969426;28;20043;-93
2022/12/23 05:08:27;;;;;;;119.50;26.10;;;6.90;99.90;;;;;;5002365;28;20054;-93
2022/12/23 05:11:13;;;;;;;112.82;24.95;;;6.50;99.90;;;;;;5001319;28;20413;-92
2022/12/23 05:13:40;;;;;;;137.43;24.85;;;6.30;99.90;;;;;;4969724;28;20050;-93
2022/12/23 05:16:14;;;;;;;98.38;23.58;;;6.20;99.90;;;;;;4969162;28;20054;-92
2022/12/23 05:18:44;;;;;;;104.28;24.27;;;6.20;99.90;;;;;;5002643;28;20050;-93
2022/12/23 05:21:12;;;;;;;133.95;26.73;;;6.40;99.90;;;;;;4969410;28;20469;-92
2022/12/23 05:23:41;;;;;;;121.55;26.63;;;5.90;99.90;;;;;;5001966;28;20045;-92
2022/12/23 05:26:24;;;;;;;151.15;29.40;;;6.10;99.90;;;;;;5001388;28;20046;-92
2022/12/23 05:28:52;;;;;;;99.00;24.13;;;6.00;99.90;;;;;;5001399;28;20047;-91
2022/12/23 05:31:25;;;;;;;86.55;24.30;;;6.50;99.90;;;;;;4962372;28;20035;-93
2022/12/23 05:33:51;;;;;;;119.80;28.48;;;6.00;99.90;;;;;;4949851;28;20077;-93
2022/12/23 05:36:19;;;;;;;118.32;26.42;;;6.10;99.90;;;;;;4950062;28;20495;-92
2022/12/23 05:38:47;;;;;;;141.35;29.23;;;6.80;99.90;;;;;;4949613;28;20119;-92
2022/12/23 05:41:14;;;;;;;175.00;31.38;;;6.30;99.90;;;;;;4949690;28;20057;-93
2022/12/23 05:43:40;;;;;;;146.02;28.13;;;6.10;99.90;;;;;;4949432;28;20042;-93
2022/12/23 05:46:16;;;;;;;;;;;;;;;;;;;;;
2022/12/23 05:48:44;;;;;;;140.50;28.73;;;5.90;99.90;;;;;;4969448;28;20108;-93
2022/12/23 05:51:10;;;;;;;117.43;28.52;;;5.80;99.90;;;;;;4953227;28;20046;-93
2022/12/23 05:53:36;;;;;;;191.30;29.55;;;6.90;99.90;;;;;;4953355;28;20153;-93
2022/12/23 05:56:06;;;;;;;114.68;26.65;;;5.90;99.90;;;;;;4952571;28;20561;-92
2022/12/23 05:58:32;;;;;;;112.05;23.40;;;5.90;99.90;;;;;;4952853;28;20047;-93
2022/12/23 06:01:03;;;;;;;100.72;22.02;;;5.80;99.90;;;;;;4952599;28;20793;-93
2022/12/23 06:03:32;;;;;;;82.47;22.58;;;6.10;99.90;;;;;;4953619;28;20119;-93
2022/12/23 06:06:10;;;;;;;;;;;;;;;;;;;;;
2022/12/23 06:08:41;;;;;;;91.55;26.55;;;5.90;99.90;;;;;;4969900;28;20386;-91
2022/12/23 06:11:08;;;;;;;114.65;28.10;;;5.70;99.90;;;;;;4952253;28;20077;-94
2022/12/23 06:13:36;;;;;;;108.05;29.75;;;5.90;99.90;;;;;;4952545;28;20116;-92
2022/12/23 06:16:04;;;;;;;118.57;28.38;;;5.70;99.90;;;;;;4952953;28;20460;-92
2022/12/23 06:18:35;;;;;;;173.13;29.95;;;5.80;99.90;;;;;;4952573;28;20065;-93
2022/12/23 06:21:15;;;;;;;;;;;;;;;;;;;;;
2022/12/23 06:24:04;;;;;;;623.75;36.83;;;5.20;99.90;;;;;;4968788;28;20577;-93
2022/12/23 06:26:37;;;;;;;520.60;43.67;;;5.40;99.90;;;;;;4951532;28;20046;-93
2022/12/23 06:29:05;;;;;;;;;;;6.20;99.90;;;;;;4953264;28;20043;-93
2022/12/23 06:31:31;;;;;;;761.05;35.20;;;5.00;99.90;;;;;;4952858;28;19922;-94
2022/12/23 06:33:59;;;;;;;515.28;26.55;;;5.00;99.90;;;;;;4952125;28;20053;-93
2022/12/23 06:36:43;;;;;;;749.63;34.40;;;4.90;99.90;;;;;;4952538;28;20042;-92
2022/12/23 06:39:09;;;;;;;493.02;32.17;;;5.00;99.90;;;;;;4952564;28;20049;-92
2022/12/23 06:41:35;;;;;;;380.45;24.33;;;4.90;99.90;;;;;;4952194;28;20497;-92
2022/12/23 06:44:01;;;;;;;323.60;28.30;;;5.40;99.90;;;;;;4951989;28;20641;-93
2022/12/23 06:46:35;;;;;;;247.82;26.60;;;4.90;99.90;;;;;;4952978;28;20092;-93
2022/12/23 06:49:03;;;;;;;138.52;25.73;;;4.90;99.90;;;;;;4952086;28;20394;-93
2022/12/23 06:51:28;;;;;;;187.02;31.73;;;5.00;99.90;;;;;;4952787;28;20049;-92
2022/12/23 06:54:00;;;;;;;115.63;27.70;;;5.30;99.90;;;;;;4951300;28;20393;-93
2022/12/23 06:56:31;;;;;;;158.07;31.08;;;5.00;99.90;;;;;;4952022;28;20051;-92
2022/12/23 06:59:09;;;;;;;;;;;;;;;;;;;;;
2022/12/23 07:01:41;;;;;;;222.27;34.15;;;5.00;99.90;;;;;;4967691;28;20067;-95
2022/12/23 07:04:06;;;;;;;111.53;28.30;;;5.00;99.90;;;;;;4952081;28;20112;-92
2022/12/23 07:06:38;;;;;;;199.30;30.05;;;5.00;99.90;;;;;;4952215;28;20054;-93
2022/12/23 07:09:06;;;;;;;180.23;34.45;;;5.20;99.90;;;;;;4951899;28;20120;-92
2022/12/23 07:11:34;;;;;;;198.35;37.20;;;5.50;99.90;;;;;;4951129;28;20054;-92
2022/12/23 07:14:00;;;;;;;117.38;31.40;;;5.20;99.90;;;;;;4951708;28;20134;-92
2022/12/23 07:16:33;;;;;;;154.48;31.60;;;5.10;99.90;;;;;;4951522;28;20137;-92
2022/12/23 07:18:58;;;;;;;;;;;6.30;99.90;;;;;;4952306;28;20051;-93
2022/12/23 07:21:24;;;;;;;138.63;30.33;;;5.40;99.90;;;;;;4984245;28;19985;-93
2022/12/23 07:23:53;;;;;;;102.85;28.35;;;5.30;99.90;;;;;;4953703;28;20046;-94
2022/12/23 07:26:27;;;;;;;90.40;27.55;;;6.20;99.90;;;;;;4970163;28;20478;-91
2022/12/23 07:29:16;;;;;;;197.10;33.83;;;5.50;99.90;;;;;;4984835;28;20563;-90
2022/12/23 07:31:57;;;;;;;194.63;33.33;;;5.40;99.90;;;;;;4964684;28;20031;-89
2022/12/23 07:34:32;;;;;;;115.00;27.98;;;5.10;99.90;;;;;;4972115;28;20042;-92
2022/12/23 07:37:16;;;;;;;;;;;;;;;;;;;;;
2022/12/23 07:39:42;;;;;;;121.95;29.48;;;5.80;99.90;;;;;;4969084;28;20043;-90
2022/12/23 07:42:33;;;;;;;;;;;;;;;;;;;;;
2022/12/23 07:45:04;;;;;;;109.75;27.60;;;5.10;99.90;;;;;;4984756;28;20098;-92
2022/12/23 07:47:30;;;;;;;137.98;31.45;;;5.70;99.90;;;;;;4971349;28;20052;-92
2022/12/23 07:50:01;;;;;;;110.78;28.65;;;5.90;99.90;;;;;;5004748;28;20114;-89
2022/12/23 07:52:29;;;;;;;128.95;30.15;;;5.50;99.90;;;;;;4973127;28;20103;-91
2022/12/23 07:54:55;;;;;;;128.25;33.33;;;5.60;99.90;;;;;;5004177;28;20038;-90
2022/12/23 07:57:23;;;;;;;155.82;33.97;;;5.90;99.90;;;;;;4998188;28;20405;-90
2022/12/23 07:59:49;;;;;;;119.93;31.63;;;6.20;99.90;;;;;;4995703;28;20046;-90
2022/12/23 08:02:15;;;;;;;128.40;32.42;;;5.80;99.90;;;;;;4987396;28;20509;-91
2022/12/23 08:04:48;;;;;;;132.57;31.42;;;5.90;99.90;;;;;;4992342;28;20038;-89
2022/12/23 08:07:13;;;;;;;120.57;32.58;;;5.70;99.90;;;;;;4971477;28;20046;-91
2022/12/23 08:09:39;;;;;;;150.35;32.53;;;5.90;99.90;;;;;;4989084;28;20130;-89
2022/12/23 08:12:18;;;;;;;;;;;;;;;;;;;;;
2022/12/23 08:14:47;;;;;;;104.18;27.10;;;5.80;99.90;;;;;;4980170;28;20053;-93
2022/12/23 08:17:13;;;;;;;91.75;26.35;;;5.70;99.90;;;;;;4971831;28;20054;-93
2022/12/23 08:19:39;;;;;;;109.40;29.67;;;5.80;99.90;;;;;;4971767;28;20053;-92
2022/12/23 08:22:05;;;;;;;103.90;28.60;;;5.80;99.90;;;;;;4971058;28;20042;-92
2022/12/23 08:24:59;;;;;;;96.55;27.50;;;6.00;99.90;;;;;;4969758;28;20050;-92
2022/12/23 08:27:27;;;;;;;106.13;27.70;;;5.80;99.90;;;;;;4973500;28;20062;-92
2022/12/23 08:29:52;;;;;;;194.10;36.22;;;6.00;99.90;;;;;;4967714;28;20053;-90
2022/12/23 08:32:18;;;;;;;137.90;29.67;;;6.00;99.90;;;;;;4970926;28;20387;-89
2022/12/23 08:37:40;;;;;;;94.00;26.23;;;5.90;99.90;;;;;;4953666;28;20055;-91
2022/12/23 08:40:09;;;;;;;97.50;25.83;;;5.90;99.90;;;;;;4969143;28;20077;-95
2022/12/23 08:42:50;;;;;;;;;;;;;;;;;;;;;
2022/12/23 08:46:09;;;;;;;111.15;24.23;;;5.80;99.90;;;;;;4988414;28;20054;-94
2022/12/23 08:52:02;;;;;;;720.83;41.20;;;5.80;99.90;;;;;;5020143;28;20054;-94
2022/12/23 08:54:51;;;;;;;713.72;35.00;;;5.70;99.90;;;;;;4986520;28;20065;-94
2022/12/23 09:00:59;;;;;;;;;;;;;;;;;;;;;
2022/12/23 09:04:07;;;;;;;;;;;;;;;;;;;;;
2022/12/23 09:07:38;;;;;;;101.78;15.70;;;5.40;99.90;;;;;;4986877;28;20492;-94
2022/12/23 09:10:45;;;;;;;;;;;;;;;;;;;;;
2022/12/23 09:14:14;;;;;;;;;;;;;;;;;;;;;
2022/12/23 09:20:53;;;;;;;96.95;27.60;;;5.50;99.90;;;;;;4975444;28;20077;-95
2022/12/23 09:30:44;;;;;;;121.28;34.65;;;5.80;99.90;;;;;;4983857;28;20030;-96
2022/12/23 09:34:09;;;;;;;;;;;;;;;;;;;;;
2022/12/23 09:37:34;;;;;;;113.88;30.08;;;6.10;99.90;;;;;;4961531;28;20058;-95
2022/12/23 09:39:52;;;;;;;;;;;;;;;;;;;;;
2022/12/23 09:42:48;;;;;;;123.20;34.83;;;6.10;99.90;;;;;;4970931;28;20119;-92
2022/12/23 09:45:32;;;;;;;131.00;34.25;;;6.20;99.90;;;;;;4955694;28;20047;-96
2022/12/23 09:47:59;;;;;;;116.97;31.63;;;6.30;99.90;;;;;;4987438;28;20137;-95
2022/12/23 09:50:33;;;;;;;125.18;30.20;;;7.00;99.90;;;;;;4954953;28;20051;-95
2022/12/23 09:53:08;;;;;;;124.18;32.08;;;6.80;99.90;;;;;;4955508;28;20114;-96
2022/12/23 09:55:50;;;;;;;117.55;30.13;;;6.40;99.90;;;;;;4962439;28;20048;-96
2022/12/23 09:58:57;;;;;;;116.85;29.63;;;6.50;99.90;;;;;;4960579;28;20047;-95
2022/12/23 10:01:45;;;;;;;180.80;31.85;;;6.50;99.90;;;;;;4955568;28;20066;-95
2022/12/23 10:04:57;;;;;;;114.65;29.35;;;6.60;99.90;;;;;;4955312;28;20186;-95
2022/12/23 10:07:43;;;;;;;111.60;28.02;;;6.50;99.90;;;;;;4933363;28;20054;-94
2022/12/23 10:10:51;;;;;;;;;;;;;;;;;;;;;
2022/12/23 10:13:26;;;;;;;195.18;29.08;;;6.60;99.90;;;;;;4984271;28;20045;-94
2022/12/23 10:16:09;;;;;;;;;;;;;;;;;;;;;
2022/12/23 10:24:10;;;;;;;;;;;;;;;;;;;;;
2022/12/23 10:26:53;;;;;;;374.07;27.57;;;6.50;99.90;;;;;;4944261;28;20479;-94
2022/12/23 10:33:54;;;;;;;216.18;22.65;;;6.70;99.90;;;;;;4965210;28;20083;-94
2022/12/23 10:44:38;;;;;;;194.43;23.35;;;6.60;99.90;;;;;;4975632;28;20505;-91
2022/12/23 10:48:06;;;;;;;;;;;;;;;;;;;;;
2022/12/23 10:51:44;;;;;;;;;;;;;;;;;;;;;
2022/12/23 11:03:37;;;;;;;106.95;19.65;;;6.90;99.90;;;;;;5000263;28;20445;-93
2022/12/23 11:06:41;;;;;;;75.18;19.50;;;7.00;99.90;;;;;;4991302;28;20057;-89
2022/12/23 11:09:32;;;;;;;;;;;;;;;;;;;;;
2022/12/23 11:12:13;;;;;;;91.67;18.23;;;6.70;99.90;;;;;;4989946;28;20131;-90
2022/12/23 11:14:51;;;;;;;143.18;22.02;;;6.70;99.90;;;;;;5004623;28;20474;-90
2022/12/23 11:18:06;;;;;;;139.02;23.13;;;6.10;99.90;;;;;;4971339;28;20051;-91
2022/12/23 11:24:33;;;;;;;;;;;;;;;;;;;;;
2022/12/23 11:28:25;;;;;;;;;;;;;;;;;;;;;
2022/12/23 11:39:13;;;;;;;43.92;15.98;;;6.50;99.90;;;;;;5016083;28;20057;-89
2022/12/23 11:42:53;;;;;;;61.78;18.25;;;6.70;99.90;;;;;;5013486;28;20049;-88
2022/12/23 11:53:51;;;;;;;40.97;15.85;;;6.60;99.90;;;;;;5002110;28;20524;-89
2022/12/23 12:28:52;;;;;;;65.47;24.23;;;6.80;99.90;;;;;;5354245;22;20057;-89
2022/12/23 12:31:34;;;;;;;94.45;25.23;;;6.90;99.90;;;;;;5022746;28;20057;-85
2022/12/23 12:34:10;;;;;;;;;;;7.70;99.90;;;;;;5030451;28;20052;-88
2022/12/23 12:36:46;;;;;;;61.70;22.77;;;6.70;99.90;;;;;;5030303;28;19960;-86
2022/12/23 12:39:20;;;;;;;74.78;22.95;;;6.80;99.90;;;;;;5028712;28;20039;-84
2022/12/23 12:41:53;;;;;;;74.53;23.55;;;7.10;99.90;;;;;;5023150;28;20386;-86
2022/12/23 12:44:30;;;;;;;71.53;23.17;;;6.80;99.90;;;;;;5023701;28;20038;-85
2022/12/23 12:47:11;;;;;;;74.10;23.58;;;6.90;99.90;;;;;;5010824;28;20077;-85
2022/12/23 12:49:45;;;;;;;68.90;22.67;;;6.80;99.90;;;;;;5020628;28;20038;-85
2022/12/23 12:52:12;;;;;;;72.10;25.52;;;6.80;99.90;;;;;;5022693;28;20045;-86
2022/12/23 12:54:52;;;;;;;70.80;23.15;;;7.00;99.90;;;;;;5016824;28;20045;-86
2022/12/23 12:57:21;;;;;;;61.70;22.50;;;7.00;99.90;;;;;;5009564;28;20045;-86
2022/12/23 12:59:53;;;;;;;63.97;22.60;;;7.00;99.90;;;;;;5025361;28;20041;-86
2022/12/23 13:02:50;;;;;;;74.50;23.67;;;6.90;99.90;;;;;;5009936;28;20136;-86
2022/12/23 13:05:20;;;;;;;74.70;23.17;;;7.00;99.90;;;;;;5026746;28;20042;-86
2022/12/23 13:08:04;;;;;;;74.07;24.50;;;7.00;99.90;;;;;;5017326;28;20045;-86
2022/12/23 13:10:38;;;;;;;59.45;22.65;;;7.00;99.90;;;;;;5020234;28;20405;-87
2022/12/23 13:13:39;;;;;;;71.22;23.33;;;6.90;99.90;;;;;;5023696;28;20041;-86
2022/12/23 13:16:28;;;;;;;73.78;24.90;;;6.90;99.90;;;;;;5026016;28;20106;-86
2022/12/23 13:19:03;;;;;;;64.78;24.52;;;6.90;99.90;;;;;;5009289;28;20045;-87
2022/12/23 13:21:49;;;;;;;65.45;24.25;;;7.00;99.90;;;;;;5026804;28;20057;-87
2022/12/23 13:24:28;;;;;;;72.70;24.80;;;6.80;99.90;;;;;;5011232;28;20103;-86
2022/12/23 13:27:06;;;;;;;80.72;26.75;;;7.00;99.90;;;;;;5009088;28;20061;-87
2022/12/23 13:29:41;;;;;;;71.57;26.15;;;7.30;99.90;;;;;;5041783;28;20952;-86
2022/12/23 13:32:25;;;;;;;67.05;25.55;;;6.90;99.90;;;;;;5030009;28;20045;-87
2022/12/23 13:35:02;;;;;;;84.82;26.45;;;7.00;99.90;;;;;;5029003;28;20071;-87
2022/12/23 13:37:45;;;;;;;90.57;27.23;;;7.00;99.90;;;;;;5022761;28;20045;-87
2022/12/23 13:40:27;;;;;;;90.72;29.52;;;7.00;99.90;;;;;;5016910;28;20045;-86
2022/12/23 13:42:58;;;;;;;88.22;28.08;;;7.10;99.90;;;;;;5033671;28;20037;-86
2022/12/23 13:45:32;;;;;;;81.20;27.05;;;7.10;99.90;;;;;;5020150;28;20037;-86
2022/12/23 13:48:28;;;;;;;104.45;30.48;;;7.10;99.90;;;;;;5013444;28;20045;-86
2022/12/23 13:51:12;;;;;;;136.70;32.22;;;7.10;99.90;;;;;;5036204;28;20049;-86
2022/12/23 13:54:04;;;;;;;100.32;30.88;;;7.10;99.90;;;;;;5018738;28;20477;-85
2022/12/23 13:57:07;;;;;;;121.25;31.15;;;6.90;99.90;;;;;;5019028;28;20045;-87
2022/12/23 13:59:41;;;;;;;113.80;31.30;;;7.00;99.90;;;;;;5019851;28;20044;-86
2022/12/23 14:05:44;;;;;;;105.97;30.58;;;7.00;99.90;;;;;;4984220;28;20622;-91
2022/12/23 14:08:19;;;;;;;129.57;32.15;;;7.10;99.90;;;;;;5014182;28;20084;-89
2022/12/23 14:10:59;;;;;;;108.50;31.63;;;7.10;99.90;;;;;;5030068;28;20053;-91
2022/12/23 14:13:36;;;;;;;118.00;32.80;;;7.10;99.90;;;;;;5014388;28;20049;-90
2022/12/23 14:16:18;;;;;;;108.07;32.65;;;6.90;99.90;;;;;;5021566;28;20388;-91
2022/12/23 14:18:52;;;;;;;116.75;34.40;;;7.00;99.90;;;;;;5016527;28;20148;-91
2022/12/23 14:21:31;;;;;;;107.18;33.97;;;6.90;99.90;;;;;;5018877;28;20465;-90
2022/12/23 14:24:22;;;;;;;122.07;34.70;;;6.90;99.90;;;;;;5029090;28;20481;-87
2022/12/23 14:27:22;;;;;;;115.97;33.63;;;7.00;99.90;;;;;;5033118;28;20091;-91
2022/12/23 14:30:07;;;;;;;109.03;32.65;;;6.70;99.90;;;;;;5034061;28;20051;-89
2022/12/23 14:32:46;;;;;;;98.22;30.02;;;6.80;99.90;;;;;;5034191;28;20060;-90
2022/12/23 14:35:18;;;;;;;86.30;27.20;;;6.80;99.90;;;;;;5051016;28;20036;-89
2022/12/23 14:38:03;;;;;;;90.80;26.73;;;6.70;99.90;;;;;;5033399;28;20101;-90
2022/12/23 14:40:36;;;;;;;91.78;28.55;;;7.50;99.90;;;;;;5033372;28;20059;-89
2022/12/23 14:43:25;;;;;;;82.28;26.38;;;6.70;99.90;;;;;;5048360;28;20137;-89
2022/12/23 14:45:52;;;;;;;101.22;27.60;;;6.90;99.90;;;;;;5031733;28;20382;-88
2022/12/23 14:48:36;;;;;;;93.22;28.30;;;6.70;99.90;;;;;;5033071;28;20049;-88
2022/12/23 14:51:08;;;;;;;106.15;28.92;;;6.90;99.90;;;;;;5033014;28;20083;-89
2022/12/23 14:53:36;;;;;;;78.05;25.80;;;6.90;99.90;;;;;;5049448;28;20055;-88
2022/12/23 14:56:27;;;;;;;88.65;26.25;;;6.90;99.90;;;;;;5031733;28;20040;-88
2022/12/23 14:59:02;;;;;;;90.75;26.15;;;6.90;99.90;;;;;;5029750;28;20048;-88
2022/12/23 15:01:32;;;;;;;74.85;23.30;;;6.90;99.90;;;;;;5032178;28;20052;-88
2022/12/23 15:04:04;;;;;;;65.43;21.83;;;6.70;99.90;;;;;;5032986;28;20056;-89
2022/12/23 15:06:41;;;;;;;64.60;21.42;;;6.80;99.90;;;;;;5031925;28;20044;-89
2022/12/23 15:09:17;;;;;;;66.50;20.17;;;6.70;99.90;;;;;;5032765;28;20052;-89
2022/12/23 15:11:42;;;;;;;70.78;19.55;;;6.80;99.90;;;;;;5032880;28;20124;-90
2022/12/23 15:14:15;;;;;;;58.58;18.95;;;6.80;99.90;;;;;;5031629;28;20373;-89
2022/12/23 15:16:43;;;;;;;62.30;19.77;;;6.60;99.90;;;;;;5049827;28;20741;-91
2022/12/23 15:19:23;;;;;;;68.40;19.75;;;6.70;99.90;;;;;;5033987;28;20041;-91
2022/12/23 15:21:50;;;;;;;48.85;16.70;;;6.60;99.90;;;;;;5033329;28;20103;-91
2022/12/23 15:24:19;;;;;;;54.78;18.10;;;6.70;99.90;;;;;;5034546;28;20044;-91
2022/12/23 15:26:52;;;;;;;55.63;15.93;;;6.80;99.90;;;;;;5032924;28;20091;-91
2022/12/23 15:29:20;;;;;;;48.15;13.85;;;6.70;99.90;;;;;;5033868;28;20050;-91
2022/12/23 15:31:50;;;;;;;44.80;15.02;;;6.60;99.90;;;;;;5013261;28;20128;-92
2022/12/23 15:34:26;;;;;;;48.40;14.10;;;6.90;99.90;;;;;;5014674;28;20056;-91
2022/12/23 15:36:53;;;;;;;46.42;13.85;;;6.60;99.90;;;;;;5011685;28;20120;-89
2022/12/23 15:39:31;;;;;;;45.83;14.57;;;6.60;99.90;;;;;;5013188;28;20445;-89
2022/12/23 15:41:57;;;;;;;57.35;17.65;;;6.70;99.90;;;;;;5010189;28;20054;-88
2022/12/23 15:44:33;;;;;;;62.08;17.83;;;6.70;99.90;;;;;;5028526;28;20045;-95
2022/12/23 15:46:59;;;;;;;58.90;18.63;;;6.50;99.90;;;;;;5011736;28;20108;-90
2022/12/23 15:49:25;;;;;;;55.83;19.40;;;6.60;99.90;;;;;;5012237;28;20081;-90
2022/12/23 15:51:54;;;;;;;67.43;20.15;;;6.70;99.90;;;;;;5012268;28;20056;-90
2022/12/23 15:54:29;;;;;;;62.28;20.00;;;6.70;99.90;;;;;;5012421;28;20543;-89
2022/12/23 15:56:57;;;;;;;64.55;20.40;;;6.60;99.90;;;;;;5010370;28;20081;-90
2022/12/23 15:59:26;;;;;;;72.35;23.92;;;6.90;99.90;;;;;;5012774;28;20033;-88
2022/12/23 16:01:53;;;;;;;78.70;23.15;;;6.60;99.90;;;;;;5027236;28;20041;-89